sensor_id;sensor_type;location;lat;lon;timestamp;pressure;altitude;pressure_sealevel;temperature;humidity
2681;BME280;1350;42.134;24.708;2024-02-14T00:00:54;99006.91;;;9.12;100.00
2681;BME280;1350;42.134;24.708;2024-02-14T00:03:22;99009.22;;;9.18;100.00
2681;BME280;1350;42.134;24.708;2024-02-14T00:05:49;99006.91;;;9.12;100.00
2681;BME280;1350;42.134;24.708;2024-02-14T00:08:17;99012.66;;;9.20;100.00
2681;BME280;1350;42.134;24.708;2024-02-14T00:10:44;99022.63;;;9.15;100.00
2681;BME280;1350;42.134;24.708;2024-02-14T00:13:13;99012.72;;;9.19;100.00
2681;BME280;1350;42.134;24.708;2024-02-14T00:15:43;99026.03;;;9.17;100.00
2681;BME280;1350;42.134;24.708;2024-02-14T00:18:11;99020.84;;;9.16;100.00
2681;BME280;1350;42.134;24.708;2024-02-14T00:20:38;99021.63;;;9.18;100.00
2681;BME280;1350;42.134;24.708;2024-02-14T00:23:05;99022.34;;;9.20;100.00
2681;BME280;1350;42.134;24.708;2024-02-14T00:25:32;99025.34;;;9.29;100.00
2681;BME280;1350;42.134;24.708;2024-02-14T00:27:59;99030.91;;;9.25;100.00
2681;BME280;1350;42.134;24.708;2024-02-14T00:30:28;99030.03;;;9.24;100.00
2681;BME280;1350;42.134;24.708;2024-02-14T00:32:55;99024.66;;;9.26;100.00
2681;BME280;1350;42.134;24.708;2024-02-14T00:35:22;99036.72;;;9.31;100.00
2681;BME280;1350;42.134;24.708;2024-02-14T00:37:49;99037.53;;;9.32;100.00
2681;BME280;1350;42.134;24.708;2024-02-14T00:41:02;99024.56;;;9.27;100.00
2681;BME280;1350;42.134;24.708;2024-02-14T00:43:29;99027.13;;;9.29;100.00
2681;BME280;1350;42.134;24.708;2024-02-14T00:45:57;99033.28;;;9.29;100.00
2681;BME280;1350;42.134;24.708;2024-02-14T00:48:24;99030.81;;;9.26;100.00
2681;BME280;1350;42.134;24.708;2024-02-14T00:50:51;99042.16;;;9.28;100.00
2681;BME280;1350;42.134;24.708;2024-02-14T00:53:19;99034.56;;;9.22;100.00
2681;BME280;1350;42.134;24.708;2024-02-14T00:55:46;99033.63;;;9.23;100.00
2681;BME280;1350;42.134;24.708;2024-02-14T00:58:13;99037.31;;;9.21;100.00
2681;BME280;1350;42.134;24.708;2024-02-14T01:00:40;99034.66;;;9.21;100.00
2681;BME280;1350;42.134;24.708;2024-02-14T01:03:08;99033.97;;;9.17;100.00
2681;BME280;1350;42.134;24.708;2024-02-14T01:05:38;99039.44;;;9.14;100.00
2681;BME280;1350;42.134;24.708;2024-02-14T01:08:05;99038.41;;;9.17;100.00
2681;BME280;1350;42.134;24.708;2024-02-14T01:10:32;99031.59;;;9.13;100.00
2681;BME280;1350;42.134;24.708;2024-02-14T01:12:59;99036.09;;;9.11;100.00
2681;BME280;1350;42.134;24.708;2024-02-14T01:15:27;99033.44;;;9.11;100.00
2681;BME280;1350;42.134;24.708;2024-02-14T01:17:54;99029.72;;;9.15;100.00
2681;BME280;1350;42.134;24.708;2024-02-14T01:20:25;99041.22;;;9.14;100.00
2681;BME280;1350;42.134;24.708;2024-02-14T01:22:51;99039.25;;;9.17;100.00
2681;BME280;1350;42.134;24.708;2024-02-14T01:25:19;99042.84;;;9.16;100.00
2681;BME280;1350;42.134;24.708;2024-02-14T01:27:46;99037.41;;;9.19;100.00
2681;BME280;1350;42.134;24.708;2024-02-14T01:30:14;99038.56;;;9.14;100.00
2681;BME280;1350;42.134;24.708;2024-02-14T01:32:42;99035.84;;;9.15;100.00
2681;BME280;1350;42.134;24.708;2024-02-14T01:35:09;99048.31;;;9.13;100.00
2681;BME280;1350;42.134;24.708;2024-02-14T01:37:37;99048.53;;;9.09;100.00
2681;BME280;1350;42.134;24.708;2024-02-14T01:40:06;99053.34;;;9.18;100.00
2681;BME280;1350;42.134;24.708;2024-02-14T01:42:33;99044.03;;;9.11;100.00
2681;BME280;1350;42.134;24.708;2024-02-14T01:45:00;99049.31;;;9.11;100.00
2681;BME280;1350;42.134;24.708;2024-02-14T01:47:28;99042.16;;;9.13;100.00
2681;BME280;1350;42.134;24.708;2024-02-14T01:49:57;99044.03;;;9.11;100.00
2681;BME280;1350;42.134;24.708;2024-02-14T01:52:24;99047.38;;;9.14;100.00
2681;BME280;1350;42.134;24.708;2024-02-14T01:54:54;99057.84;;;9.16;100.00
2681;BME280;1350;42.134;24.708;2024-02-14T01:57:22;99046.50;;;9.14;100.00
2681;BME280;1350;42.134;24.708;2024-02-14T01:59:49;99048.31;;;9.13;100.00
2681;BME280;1350;42.134;24.708;2024-02-14T02:02:19;99052.13;;;9.08;100.00
2681;BME280;1350;42.134;24.708;2024-02-14T02:04:46;99052.03;;;9.09;100.00
2681;BME280;1350;42.134;24.708;2024-02-14T02:07:13;99052.81;;;9.11;100.00
2681;BME280;1350;42.134;24.708;2024-02-14T02:09:40;99058.03;;;9.13;100.00
2681;BME280;1350;42.134;24.708;2024-02-14T02:12:08;99071.09;;;9.16;100.00
2681;BME280;1350;42.134;24.708;2024-02-14T02:14:35;99066.91;;;9.12;100.00
2681;BME280;1350;42.134;24.708;2024-02-14T02:17:03;99071.94;;;9.16;100.00
2681;BME280;1350;42.134;24.708;2024-02-14T02:19:33;99070.75;;;9.22;100.00
2681;BME280;1350;42.134;24.708;2024-02-14T02:22:00;99068.88;;;9.24;100.00
2681;BME280;1350;42.134;24.708;2024-02-14T02:24:28;99075.09;;;9.23;100.00
2681;BME280;1350;42.134;24.708;2024-02-14T02:26:56;99071.94;;;9.16;100.00
2681;BME280;1350;42.134;24.708;2024-02-14T02:29:23;99074.50;;;9.18;100.00
2681;BME280;1350;42.134;24.708;2024-02-14T02:31:50;99071.09;;;9.16;100.00
2681;BME280;1350;42.134;24.708;2024-02-14T02:34:17;99087.56;;;9.21;100.00
2681;BME280;1350;42.134;24.708;2024-02-14T02:36:44;99076.72;;;9.25;100.00
2681;BME280;1350;42.134;24.708;2024-02-14T02:39:12;99083.09;;;9.21;100.00
2681;BME280;1350;42.134;24.708;2024-02-14T02:41:40;99085.75;;;9.21;100.00
2681;BME280;1350;42.134;24.708;2024-02-14T02:44:07;99087.47;;;9.22;100.00
2681;BME280;1350;42.134;24.708;2024-02-14T02:46:34;99087.56;;;9.21;100.00
2681;BME280;1350;42.134;24.708;2024-02-14T02:49:01;99090.63;;;9.13;100.00
2681;BME280;1350;42.134;24.708;2024-02-14T02:51:28;99093.09;;;9.16;100.00
2681;BME280;1350;42.134;24.708;2024-02-14T02:53:55;99095.13;;;9.11;100.00
2681;BME280;1350;42.134;24.708;2024-02-14T02:56:22;99099.22;;;9.17;100.00
2681;BME280;1350;42.134;24.708;2024-02-14T02:58:54;99099.84;;;9.22;100.00
2681;BME280;1350;42.134;24.708;2024-02-14T03:01:21;99108.63;;;9.22;100.00
2681;BME280;1350;42.134;24.708;2024-02-14T03:03:50;99107.78;;;9.22;100.00
2681;BME280;1350;42.134;24.708;2024-02-14T03:06:17;99107.53;;;9.26;100.00
2681;BME280;1350;42.134;24.708;2024-02-14T03:08:45;99118.97;;;9.27;100.00
2681;BME280;1350;42.134;24.708;2024-02-14T03:11:15;99111.13;;;9.25;100.00
2681;BME280;1350;42.134;24.708;2024-02-14T03:13:42;99114.75;;;9.23;100.00
2681;BME280;1350;42.134;24.708;2024-02-14T03:16:11;99121.00;;;9.22;100.00
2681;BME280;1350;42.134;24.708;2024-02-14T03:18:40;99125.34;;;9.23;100.00
2681;BME280;1350;42.134;24.708;2024-02-14T03:21:07;99133.97;;;9.26;100.00
2681;BME280;1350;42.134;24.708;2024-02-14T03:23:34;99132.44;;;9.22;100.00
2681;BME280;1350;42.134;24.708;2024-02-14T03:26:01;99136.09;;;9.20;100.00
2681;BME280;1350;42.134;24.708;2024-02-14T03:28:32;99137.44;;;9.11;100.00
2681;BME280;1350;42.134;24.708;2024-02-14T03:30:59;99138.44;;;9.09;100.00
2681;BME280;1350;42.134;24.708;2024-02-14T03:33:28;99136.34;;;9.15;100.00
2681;BME280;1350;42.134;24.708;2024-02-14T03:35:55;99136.94;;;9.20;100.00
2681;BME280;1350;42.134;24.708;2024-02-14T03:38:25;99144.09;;;9.18;100.00
2681;BME280;1350;42.134;24.708;2024-02-14T03:40:53;99147.78;;;9.16;100.00
2681;BME280;1350;42.134;24.708;2024-02-14T03:43:20;99141.28;;;9.21;100.00
2681;BME280;1350;42.134;24.708;2024-02-14T03:45:49;99148.56;;;9.18;100.00
2681;BME280;1350;42.134;24.708;2024-02-14T03:48:17;99150.88;;;9.24;100.00
2681;BME280;1350;42.134;24.708;2024-02-14T03:50:45;99152.03;;;9.18;100.00
2681;BME280;1350;42.134;24.708;2024-02-14T03:53:12;99157.50;;;9.15;100.00
2681;BME280;1350;42.134;24.708;2024-02-14T03:55:40;99156.28;;;9.05;100.00
2681;BME280;1350;42.134;24.708;2024-02-14T03:58:07;99161.41;;;9.08;100.00
2681;BME280;1350;42.134;24.708;2024-02-14T04:00:34;99164.06;;;9.08;100.00
2681;BME280;1350;42.134;24.708;2024-02-14T04:03:01;99171.66;;;9.14;100.00
2681;BME280;1350;42.134;24.708;2024-02-14T04:05:28;99169.97;;;9.13;100.00
2681;BME280;1350;42.134;24.708;2024-02-14T04:07:56;99175.34;;;9.12;100.00
2681;BME280;1350;42.134;24.708;2024-02-14T04:10:23;99178.91;;;9.11;100.00
2681;BME280;1350;42.134;24.708;2024-02-14T04:12:50;99175.38;;;9.10;100.00
2681;BME280;1350;42.134;24.708;2024-02-14T04:15:17;99179.06;;;9.08;100.00
2681;BME280;1350;42.134;24.708;2024-02-14T04:17:44;99183.66;;;9.04;100.00
2681;BME280;1350;42.134;24.708;2024-02-14T04:20:11;99187.53;;;9.14;100.00
2681;BME280;1350;42.134;24.708;2024-02-14T04:22:38;99183.09;;;9.15;100.00
2681;BME280;1350;42.134;24.708;2024-02-14T04:25:07;99189.56;;;9.09;100.00
2681;BME280;1350;42.134;24.708;2024-02-14T04:27:34;99189.16;;;9.17;100.00
2681;BME280;1350;42.134;24.708;2024-02-14T04:30:02;99191.03;;;9.15;100.00
2681;BME280;1350;42.134;24.708;2024-02-14T04:32:29;99191.13;;;9.13;100.00
2681;BME280;1350;42.134;24.708;2024-02-14T04:34:56;99193.06;;;9.10;100.00
2681;BME280;1350;42.134;24.708;2024-02-14T04:37:24;99191.88;;;9.15;100.00
2681;BME280;1350;42.134;24.708;2024-02-14T04:39:57;99203.94;;;9.21;100.00
2681;BME280;1350;42.134;24.708;2024-02-14T04:42:25;99201.38;;;9.19;100.00
2681;BME280;1350;42.134;24.708;2024-02-14T04:44:52;99203.25;;;9.17;100.00
2681;BME280;1350;42.134;24.708;2024-02-14T04:47:19;99205.63;;;9.22;100.00
2681;BME280;1350;42.134;24.708;2024-02-14T04:49:46;99202.75;;;9.26;100.00
2681;BME280;1350;42.134;24.708;2024-02-14T04:52:13;99200.44;;;9.20;100.00
2681;BME280;1350;42.134;24.708;2024-02-14T04:54:41;99205.56;;;9.23;100.00
2681;BME280;1350;42.134;24.708;2024-02-14T04:57:08;99214.19;;;9.27;100.00
2681;BME280;1350;42.134;24.708;2024-02-14T04:59:37;99216.06;;;9.25;100.00
2681;BME280;1350;42.134;24.708;2024-02-14T05:02:03;99217.31;;;9.18;100.00
2681;BME280;1350;42.134;24.708;2024-02-14T05:04:30;99219.72;;;9.22;100.00
2681;BME280;1350;42.134;24.708;2024-02-14T05:06:58;99209.56;;;9.15;100.00
2681;BME280;1350;42.134;24.708;2024-02-14T05:09:24;99227.19;;;9.14;100.00
2681;BME280;1350;42.134;24.708;2024-02-14T05:11:51;99226.25;;;9.15;100.00
2681;BME280;1350;42.134;24.708;2024-02-14T05:14:20;99232.25;;;9.19;100.00
2681;BME280;1350;42.134;24.708;2024-02-14T05:16:49;99227.50;;;9.25;100.00
2681;BME280;1350;42.134;24.708;2024-02-14T05:19:16;99235.44;;;9.25;100.00
2681;BME280;1350;42.134;24.708;2024-02-14T05:21:43;99230.47;;;9.19;100.00
2681;BME280;1350;42.134;24.708;2024-02-14T05:24:09;99233.34;;;9.15;100.00
2681;BME280;1350;42.134;24.708;2024-02-14T05:26:36;99245.47;;;9.19;100.00
2681;BME280;1350;42.134;24.708;2024-02-14T05:29:03;99245.16;;;9.25;100.00
2681;BME280;1350;42.134;24.708;2024-02-14T05:31:42;99251.47;;;9.22;100.00
2681;BME280;1350;42.134;24.708;2024-02-14T05:34:11;99249.66;;;9.23;100.00
2681;BME280;1350;42.134;24.708;2024-02-14T05:36:38;99254.69;;;9.27;100.00
2681;BME280;1350;42.134;24.708;2024-02-14T05:39:05;99259.09;;;9.28;100.00
2681;BME280;1350;42.134;24.708;2024-02-14T05:41:33;99260.63;;;9.32;100.00
2681;BME280;1350;42.134;24.708;2024-02-14T05:44:00;99257.09;;;9.32;100.00
2681;BME280;1350;42.134;24.708;2024-02-14T05:46:27;99269.25;;;9.36;100.00
2681;BME280;1350;42.134;24.708;2024-02-14T05:48:54;99262.72;;;9.26;100.00
2681;BME280;1350;42.134;24.708;2024-02-14T05:51:24;99271.19;;;9.32;100.00
2681;BME280;1350;42.134;24.708;2024-02-14T05:53:52;99269.88;;;9.41;100.00
2681;BME280;1350;42.134;24.708;2024-02-14T05:56:19;99275.34;;;9.38;100.00
2681;BME280;1350;42.134;24.708;2024-02-14T05:58:46;99278.41;;;9.46;100.00
2681;BME280;1350;42.134;24.708;2024-02-14T06:01:13;99276.00;;;9.41;100.00
2681;BME280;1350;42.134;24.708;2024-02-14T06:03:41;99277.34;;;9.50;100.00
2681;BME280;1350;42.134;24.708;2024-02-14T06:06:08;99281.28;;;9.58;100.00
2681;BME280;1350;42.134;24.708;2024-02-14T06:08:36;99287.25;;;9.62;100.00
2681;BME280;1350;42.134;24.708;2024-02-14T06:11:03;99288.22;;;9.61;100.00
2681;BME280;1350;42.134;24.708;2024-02-14T06:13:30;99289.59;;;9.68;100.00
2681;BME280;1350;42.134;24.708;2024-02-14T06:15:58;99295.56;;;9.71;100.00
2681;BME280;1350;42.134;24.708;2024-02-14T06:18:25;99302.41;;;9.75;100.00
2681;BME280;1350;42.134;24.708;2024-02-14T06:20:52;99300.56;;;9.93;100.00
2681;BME280;1350;42.134;24.708;2024-02-14T06:23:18;99309.31;;;9.78;100.00
2681;BME280;1350;42.134;24.708;2024-02-14T06:25:47;99311.88;;;9.79;100.00
2681;BME280;1350;42.134;24.708;2024-02-14T06:28:14;99306.53;;;9.81;100.00
2681;BME280;1350;42.134;24.708;2024-02-14T06:30:41;99310.00;;;9.81;100.00
2681;BME280;1350;42.134;24.708;2024-02-14T06:33:08;99309.22;;;9.79;100.00
2681;BME280;1350;42.134;24.708;2024-02-14T06:35:35;99320.59;;;9.81;100.00
2681;BME280;1350;42.134;24.708;2024-02-14T06:38:02;99317.25;;;9.78;100.00
2681;BME280;1350;42.134;24.708;2024-02-14T06:40:29;99326.84;;;9.80;100.00
2681;BME280;1350;42.134;24.708;2024-02-14T06:42:57;99322.47;;;9.79;100.00
2681;BME280;1350;42.134;24.708;2024-02-14T06:45:25;99320.78;;;9.78;100.00
2681;BME280;1350;42.134;24.708;2024-02-14T06:47:53;99333.94;;;9.80;100.00
2681;BME280;1350;42.134;24.708;2024-02-14T06:50:21;99329.16;;;9.86;100.00
2681;BME280;1350;42.134;24.708;2024-02-14T06:52:48;99335.25;;;9.88;100.00
2681;BME280;1350;42.134;24.708;2024-02-14T06:55:14;99344.28;;;9.84;100.00
2681;BME280;1350;42.134;24.708;2024-02-14T06:57:41;99339.69;;;9.88;100.00
2681;BME280;1350;42.134;24.708;2024-02-14T07:00:11;99345.69;;;9.91;100.00
2681;BME280;1350;42.134;24.708;2024-02-14T07:02:38;99359.16;;;9.87;100.00
2681;BME280;1350;42.134;24.708;2024-02-14T07:05:05;99354.28;;;9.95;100.00
2681;BME280;1350;42.134;24.708;2024-02-14T07:07:33;99366.00;;;9.91;100.00
2681;BME280;1350;42.134;24.708;2024-02-14T07:10:00;99366.78;;;9.93;100.00
2681;BME280;1350;42.134;24.708;2024-02-14T07:12:27;99368.47;;;9.94;100.00
2681;BME280;1350;42.134;24.708;2024-02-14T07:14:55;99369.09;;;9.99;100.00
2681;BME280;1350;42.134;24.708;2024-02-14T07:17:24;99374.16;;;10.03;100.00
2681;BME280;1350;42.134;24.708;2024-02-14T07:19:51;99379.34;;;10.05;100.00
2681;BME280;1350;42.134;24.708;2024-02-14T07:22:18;99381.72;;;10.11;100.00
2681;BME280;1350;42.134;24.708;2024-02-14T07:24:45;99379.28;;;10.06;100.00
2681;BME280;1350;42.134;24.708;2024-02-14T07:27:14;99389.66;;;10.11;100.00
2681;BME280;1350;42.134;24.708;2024-02-14T07:29:42;99375.06;;;10.19;100.00
2681;BME280;1350;42.134;24.708;2024-02-14T07:32:10;99387.88;;;10.11;100.00
2681;BME280;1350;42.134;24.708;2024-02-14T07:34:39;99395.81;;;10.11;100.00
2681;BME280;1350;42.134;24.708;2024-02-14T07:37:06;99404.28;;;10.18;100.00
2681;BME280;1350;42.134;24.708;2024-02-14T07:39:33;99402.34;;;10.37;100.00
2681;BME280;1350;42.134;24.708;2024-02-14T07:42:01;99406.28;;;10.30;100.00
2681;BME280;1350;42.134;24.708;2024-02-14T07:44:29;99417.19;;;10.24;100.00
2681;BME280;1350;42.134;24.708;2024-02-14T07:46:56;99417.88;;;10.27;100.00
2681;BME280;1350;42.134;24.708;2024-02-14T07:49:22;99425.69;;;10.31;100.00
2681;BME280;1350;42.134;24.708;2024-02-14T07:51:51;99425.00;;;10.27;100.00
2681;BME280;1350;42.134;24.708;2024-02-14T07:54:18;99422.06;;;10.16;100.00
2681;BME280;1350;42.134;24.708;2024-02-14T07:56:45;99420.16;;;10.18;100.00
2681;BME280;1350;42.134;24.708;2024-02-14T07:59:12;99424.63;;;10.17;100.00
2681;BME280;1350;42.134;24.708;2024-02-14T08:01:39;99433.09;;;10.24;100.00
2681;BME280;1350;42.134;24.708;2024-02-14T08:04:06;99424.06;;;10.28;100.00
2681;BME280;1350;42.134;24.708;2024-02-14T08:06:33;99430.06;;;10.32;99.75
2681;BME280;1350;42.134;24.708;2024-02-14T08:09:02;99429.84;;;10.19;99.83
2681;BME280;1350;42.134;24.708;2024-02-14T08:11:32;99433.41;;;10.18;98.45
2681;BME280;1350;42.134;24.708;2024-02-14T08:13:59;99433.97;;;10.24;99.17
2681;BME280;1350;42.134;24.708;2024-02-14T08:16:26;99448.56;;;10.16;99.48
2681;BME280;1350;42.134;24.708;2024-02-14T08:18:52;99445.66;;;10.20;99.61
2681;BME280;1350;42.134;24.708;2024-02-14T08:21:24;99447.53;;;10.18;100.00
2681;BME280;1350;42.134;24.708;2024-02-14T08:23:51;99447.19;;;10.24;99.30
2681;BME280;1350;42.134;24.708;2024-02-14T08:26:19;99452.25;;;10.29;100.00
2681;BME280;1350;42.134;24.708;2024-02-14T08:28:46;99443.69;;;10.24;100.00
2681;BME280;1350;42.134;24.708;2024-02-14T08:31:13;99441.56;;;10.31;100.00
2681;BME280;1350;42.134;24.708;2024-02-14T08:33:40;99446.88;;;10.31;100.00
2681;BME280;1350;42.134;24.708;2024-02-14T08:36:08;99451.50;;;10.27;100.00
2681;BME280;1350;42.134;24.708;2024-02-14T08:38:35;99445.34;;;10.27;100.00
2681;BME280;1350;42.134;24.708;2024-02-14T08:41:02;99461.06;;;10.30;100.00
2681;BME280;1350;42.134;24.708;2024-02-14T08:43:30;99448.06;;;10.25;100.00
2681;BME280;1350;42.134;24.708;2024-02-14T08:45:59;99462.03;;;10.29;100.00
2681;BME280;1350;42.134;24.708;2024-02-14T08:48:26;99456.81;;;10.27;100.00
2681;BME280;1350;42.134;24.708;2024-02-14T08:50:54;99459.91;;;10.18;100.00
2681;BME280;1350;42.134;24.708;2024-02-14T08:53:21;99471.75;;;10.28;100.00
2681;BME280;1350;42.134;24.708;2024-02-14T08:55:48;99470.81;;;10.29;100.00
2681;BME280;1350;42.134;24.708;2024-02-14T08:58:17;99476.88;;;10.31;100.00
2681;BME280;1350;42.134;24.708;2024-02-14T09:03:31;99474.16;;;10.33;100.00
2681;BME280;1350;42.134;24.708;2024-02-14T09:05:58;99472.63;;;10.29;100.00
2681;BME280;1350;42.134;24.708;2024-02-14T09:08:25;99479.88;;;10.25;100.00
2681;BME280;1350;42.134;24.708;2024-02-14T09:10:52;99487.28;;;10.18;100.00
2681;BME280;1350;42.134;24.708;2024-02-14T09:13:22;99479.25;;;10.20;100.00
2681;BME280;1350;42.134;24.708;2024-02-14T09:15:51;99487.50;;;10.14;100.00
2681;BME280;1350;42.134;24.708;2024-02-14T09:18:18;99495.63;;;10.11;100.00
2681;BME280;1350;42.134;24.708;2024-02-14T09:20:45;99495.22;;;10.18;100.00
2681;BME280;1350;42.134;24.708;2024-02-14T09:23:12;99490.94;;;10.16;100.00
2681;BME280;1350;42.134;24.708;2024-02-14T09:25:45;99504.28;;;10.14;100.00
2681;BME280;1350;42.134;24.708;2024-02-14T09:28:12;99504.34;;;10.13;100.00
2681;BME280;1350;42.134;24.708;2024-02-14T09:30:40;99507.25;;;10.08;100.00
2681;BME280;1350;42.134;24.708;2024-02-14T09:33:08;99503.72;;;10.08;100.00
2681;BME280;1350;42.134;24.708;2024-02-14T09:35:35;99501.88;;;10.10;100.00
2681;BME280;1350;42.134;24.708;2024-02-14T09:38:03;99509.66;;;10.13;100.00
2681;BME280;1350;42.134;24.708;2024-02-14T09:40:31;99501.78;;;10.11;100.00
2681;BME280;1350;42.134;24.708;2024-02-14T09:43:03;99510.38;;;9.98;100.00
2681;BME280;1350;42.134;24.708;2024-02-14T09:45:32;99492.63;;;10.00;100.00
2681;BME280;1350;42.134;24.708;2024-02-14T09:47:59;99507.72;;;9.98;100.00
2681;BME280;1350;42.134;24.708;2024-02-14T09:50:29;99503.06;;;9.86;100.00
2681;BME280;1350;42.134;24.708;2024-02-14T09:52:58;99502.81;;;9.90;100.00
2681;BME280;1350;42.134;24.708;2024-02-14T09:55:25;99499.09;;;9.94;100.00
2681;BME280;1350;42.134;24.708;2024-02-14T09:57:52;99495.75;;;9.91;100.00
2681;BME280;1350;42.134;24.708;2024-02-14T10:00:21;99496.47;;;9.94;100.00
2681;BME280;1350;42.134;24.708;2024-02-14T10:02:49;99493.66;;;9.97;100.00
2681;BME280;1350;42.134;24.708;2024-02-14T10:05:16;99494.91;;;10.07;100.00
2681;BME280;1350;42.134;24.708;2024-02-14T10:07:45;99493.59;;;10.16;100.00
2681;BME280;1350;42.134;24.708;2024-02-14T10:10:12;99488.13;;;10.19;100.00
2681;BME280;1350;42.134;24.708;2024-02-14T10:12:42;99499.03;;;10.30;100.00
2681;BME280;1350;42.134;24.708;2024-02-14T10:15:09;99489.72;;;10.39;100.00
2681;BME280;1350;42.134;24.708;2024-02-14T10:17:38;99500.25;;;10.40;100.00
2681;BME280;1350;42.134;24.708;2024-02-14T10:20:08;99494.09;;;10.40;100.00
2681;BME280;1350;42.134;24.708;2024-02-14T10:22:38;99490.44;;;10.42;100.00
2681;BME280;1350;42.134;24.708;2024-02-14T10:25:07;99486.97;;;10.57;100.00
2681;BME280;1350;42.134;24.708;2024-02-14T10:27:36;99486.03;;;10.74;100.00
2681;BME280;1350;42.134;24.708;2024-02-14T10:30:05;99496.56;;;10.75;100.00
2681;BME280;1350;42.134;24.708;2024-02-14T10:32:34;99489.03;;;10.68;100.00
2681;BME280;1350;42.134;24.708;2024-02-14T10:35:04;99490.06;;;10.65;100.00
2681;BME280;1350;42.134;24.708;2024-02-14T10:37:34;99490.66;;;10.70;100.00
2681;BME280;1350;42.134;24.708;2024-02-14T10:40:02;99482.38;;;10.76;100.00
2681;BME280;1350;42.134;24.708;2024-02-14T10:42:31;99482.63;;;10.87;100.00
2681;BME280;1350;42.134;24.708;2024-02-14T10:44:58;99476.31;;;10.90;100.00
2681;BME280;1350;42.134;24.708;2024-02-14T10:47:30;99471.84;;;11.06;100.00
2681;BME280;1350;42.134;24.708;2024-02-14T10:50:00;99469.91;;;11.09;99.33
2681;BME280;1350;42.134;24.708;2024-02-14T10:52:31;99476.22;;;11.22;98.45
2681;BME280;1350;42.134;24.708;2024-02-14T10:54:59;99465.19;;;11.14;95.82
2681;BME280;1350;42.134;24.708;2024-02-14T10:57:28;99460.88;;;11.12;93.41
2681;BME280;1350;42.134;24.708;2024-02-14T10:59:57;99461.22;;;11.21;94.90
2681;BME280;1350;42.134;24.708;2024-02-14T11:02:26;99458.50;;;11.23;94.17
2681;BME280;1350;42.134;24.708;2024-02-14T11:04:55;99461.22;;;11.37;94.92
2681;BME280;1350;42.134;24.708;2024-02-14T11:07:23;99462.72;;;11.56;93.66
2681;BME280;1350;42.134;24.708;2024-02-14T11:10:04;99471.81;;;11.98;93.40
2681;BME280;1350;42.134;24.708;2024-02-14T11:12:32;99466.06;;;12.19;91.38
2681;BME280;1350;42.134;24.708;2024-02-14T11:15:09;99460.00;;;12.31;91.34
2681;BME280;1350;42.134;24.708;2024-02-14T11:17:36;99460.28;;;12.27;88.48
2681;BME280;1350;42.134;24.708;2024-02-14T11:20:13;99465.88;;;12.36;88.79
2681;BME280;1350;42.134;24.708;2024-02-14T11:22:50;99459.72;;;12.50;90.23
2681;BME280;1350;42.134;24.708;2024-02-14T11:25:22;99462.38;;;12.50;88.25
2681;BME280;1350;42.134;24.708;2024-02-14T11:27:50;99457.25;;;12.61;87.19
2681;BME280;1350;42.134;24.708;2024-02-14T11:30:28;99454.59;;;12.61;82.92
2681;BME280;1350;42.134;24.708;2024-02-14T11:33:16;99456.28;;;12.76;83.38
2681;BME280;1350;42.134;24.708;2024-02-14T11:35:44;99459.19;;;13.13;86.12
2681;BME280;1350;42.134;24.708;2024-02-14T11:38:11;99455.28;;;13.19;81.74
2681;BME280;1350;42.134;24.708;2024-02-14T11:40:39;99462.53;;;13.03;79.63
2681;BME280;1350;42.134;24.708;2024-02-14T11:43:11;99463.59;;;13.00;81.00
2681;BME280;1350;42.134;24.708;2024-02-14T11:45:41;99465.66;;;12.95;79.15
2681;BME280;1350;42.134;24.708;2024-02-14T11:48:09;99465.19;;;12.75;82.01
2681;BME280;1350;42.134;24.708;2024-02-14T11:50:39;99477.47;;;12.91;81.16
2681;BME280;1350;42.134;24.708;2024-02-14T11:53:06;99467.66;;;12.78;79.68
2681;BME280;1350;42.134;24.708;2024-02-14T11:55:36;99473.38;;;12.58;79.83
2681;BME280;1350;42.134;24.708;2024-02-14T11:58:06;99464.66;;;12.70;79.71
2681;BME280;1350;42.134;24.708;2024-02-14T12:00:34;99474.03;;;12.61;79.88
2681;BME280;1350;42.134;24.708;2024-02-14T12:03:06;99473.78;;;12.38;80.14
2681;BME280;1350;42.134;24.708;2024-02-14T12:05:34;99475.28;;;12.28;81.89
2681;BME280;1350;42.134;24.708;2024-02-14T12:08:02;99470.66;;;12.45;80.97
2681;BME280;1350;42.134;24.708;2024-02-14T12:10:31;99469.94;;;12.14;80.23
2681;BME280;1350;42.134;24.708;2024-02-14T12:12:58;99467.59;;;11.93;79.48
2681;BME280;1350;42.134;24.708;2024-02-14T12:15:26;99476.91;;;11.86;80.00
2681;BME280;1350;42.134;24.708;2024-02-14T12:17:55;99459.75;;;12.06;86.21
2681;BME280;1350;42.134;24.708;2024-02-14T12:20:23;99479.09;;;11.94;80.12
2681;BME280;1350;42.134;24.708;2024-02-14T12:22:51;99472.09;;;11.93;81.36
2681;BME280;1350;42.134;24.708;2024-02-14T12:25:19;99474.47;;;11.98;81.00
2681;BME280;1350;42.134;24.708;2024-02-14T12:27:50;99474.16;;;11.88;81.46
2681;BME280;1350;42.134;24.708;2024-02-14T12:30:18;99469.38;;;11.79;81.27
2681;BME280;1350;42.134;24.708;2024-02-14T12:32:57;99474.56;;;11.66;81.57
2681;BME280;1350;42.134;24.708;2024-02-14T12:35:26;99471.53;;;11.72;80.78
2681;BME280;1350;42.134;24.708;2024-02-14T12:37:53;99476.34;;;11.66;80.60
2681;BME280;1350;42.134;24.708;2024-02-14T12:40:20;99474.97;;;11.59;81.71
2681;BME280;1350;42.134;24.708;2024-02-14T12:42:47;99473.78;;;11.64;84.19
2681;BME280;1350;42.134;24.708;2024-02-14T12:45:14;99473.13;;;11.45;87.05
2681;BME280;1350;42.134;24.708;2024-02-14T12:47:41;99472.25;;;11.45;89.17
2681;BME280;1350;42.134;24.708;2024-02-14T12:50:09;99475.72;;;11.31;90.84
2681;BME280;1350;42.134;24.708;2024-02-14T12:52:37;99455.72;;;11.40;90.05
2681;BME280;1350;42.134;24.708;2024-02-14T12:55:04;99469.16;;;11.52;88.45
2681;BME280;1350;42.134;24.708;2024-02-14T12:57:31;99474.75;;;11.63;86.36
2681;BME280;1350;42.134;24.708;2024-02-14T12:59:58;99465.19;;;11.59;84.22
2681;BME280;1350;42.134;24.708;2024-02-14T13:02:25;99465.44;;;11.70;82.75
2681;BME280;1350;42.134;24.708;2024-02-14T13:04:54;99468.72;;;11.75;81.86
2681;BME280;1350;42.134;24.708;2024-02-14T13:07:20;99471.41;;;11.89;80.03
2681;BME280;1350;42.134;24.708;2024-02-14T13:09:49;99476.47;;;12.08;79.00
2681;BME280;1350;42.134;24.708;2024-02-14T13:12:16;99476.78;;;12.18;78.55
2681;BME280;1350;42.134;24.708;2024-02-14T13:14:43;99480.56;;;12.14;78.86